sensor_id;sensor_type;location;lat;lon;timestamp;P1;durP1;ratioP1;P2;durP2;ratioP2
24557;SDS011;12726;49.148;8.582;2024-02-28T00:01:29;21.50;;;12.65;;
24557;SDS011;12726;49.148;8.582;2024-02-28T00:04:14;19.17;;;12.10;;
24557;SDS011;12726;49.148;8.582;2024-02-28T00:06:59;18.58;;;11.35;;
24557;SDS011;12726;49.148;8.582;2024-02-28T00:09:45;18.50;;;11.73;;
24557;SDS011;12726;49.148;8.582;2024-02-28T00:12:30;20.23;;;12.15;;
24557;SDS011;12726;49.148;8.582;2024-02-28T00:15:17;19.10;;;10.75;;
24557;SDS011;12726;49.148;8.582;2024-02-28T00:18:02;17.75;;;11.70;;
24557;SDS011;12726;49.148;8.582;2024-02-28T00:20:48;18.92;;;12.80;;
24557;SDS011;12726;49.148;8.582;2024-02-28T00:23:33;19.17;;;12.30;;
24557;SDS011;12726;49.148;8.582;2024-02-28T00:26:18;18.00;;;11.90;;
24557;SDS011;12726;49.148;8.582;2024-02-28T00:29:04;19.40;;;12.02;;
24557;SDS011;12726;49.148;8.582;2024-02-28T00:31:50;23.15;;;14.00;;
24557;SDS011;12726;49.148;8.582;2024-02-28T00:34:36;22.58;;;13.55;;
24557;SDS011;12726;49.148;8.582;2024-02-28T00:37:21;26.08;;;15.38;;
24557;SDS011;12726;49.148;8.582;2024-02-28T00:40:08;25.33;;;15.23;;
24557;SDS011;12726;49.148;8.582;2024-02-28T00:42:54;22.30;;;14.18;;
24557;SDS011;12726;49.148;8.582;2024-02-28T00:45:39;19.77;;;13.77;;
24557;SDS011;12726;49.148;8.582;2024-02-28T00:48:26;21.30;;;13.52;;
24557;SDS011;12726;49.148;8.582;2024-02-28T00:51:11;23.65;;;14.10;;
24557;SDS011;12726;49.148;8.582;2024-02-28T00:53:56;21.52;;;12.68;;
24557;SDS011;12726;49.148;8.582;2024-02-28T00:56:42;20.27;;;12.95;;
24557;SDS011;12726;49.148;8.582;2024-02-28T00:59:27;22.52;;;13.63;;
24557;SDS011;12726;49.148;8.582;2024-02-28T01:02:12;26.40;;;15.20;;
24557;SDS011;12726;49.148;8.582;2024-02-28T01:04:59;24.60;;;15.00;;
24557;SDS011;12726;49.148;8.582;2024-02-28T01:07:45;25.60;;;14.68;;
24557;SDS011;12726;49.148;8.582;2024-02-28T01:10:30;20.85;;;13.18;;
24557;SDS011;12726;49.148;8.582;2024-02-28T01:13:15;24.88;;;13.98;;
24557;SDS011;12726;49.148;8.582;2024-02-28T01:16:00;21.30;;;14.05;;
24557;SDS011;12726;49.148;8.582;2024-02-28T01:18:46;22.13;;;12.88;;
24557;SDS011;12726;49.148;8.582;2024-02-28T01:21:33;25.92;;;14.05;;
24557;SDS011;12726;49.148;8.582;2024-02-28T01:24:18;22.07;;;13.87;;
24557;SDS011;12726;49.148;8.582;2024-02-28T01:27:03;19.42;;;11.48;;
24557;SDS011;12726;49.148;8.582;2024-02-28T01:29:48;22.23;;;12.77;;
24557;SDS011;12726;49.148;8.582;2024-02-28T01:32:34;20.35;;;12.82;;
24557;SDS011;12726;49.148;8.582;2024-02-28T01:35:19;26.55;;;14.48;;
24557;SDS011;12726;49.148;8.582;2024-02-28T01:38:07;21.63;;;14.07;;
24557;SDS011;12726;49.148;8.582;2024-02-28T01:40:52;18.08;;;11.15;;
24557;SDS011;12726;49.148;8.582;2024-02-28T01:43:38;19.48;;;10.63;;
24557;SDS011;12726;49.148;8.582;2024-02-28T01:46:24;17.35;;;10.68;;
24557;SDS011;12726;49.148;8.582;2024-02-28T01:49:11;24.38;;;14.82;;
24557;SDS011;12726;49.148;8.582;2024-02-28T01:51:57;19.17;;;11.88;;
24557;SDS011;12726;49.148;8.582;2024-02-28T01:54:43;21.02;;;12.88;;
24557;SDS011;12726;49.148;8.582;2024-02-28T01:57:29;21.83;;;12.88;;
24557;SDS011;12726;49.148;8.582;2024-02-28T02:00:14;22.80;;;11.25;;
24557;SDS011;12726;49.148;8.582;2024-02-28T02:03:01;24.98;;;14.30;;
24557;SDS011;12726;49.148;8.582;2024-02-28T02:05:47;24.20;;;14.50;;
24557;SDS011;12726;49.148;8.582;2024-02-28T02:08:32;26.75;;;14.18;;
24557;SDS011;12726;49.148;8.582;2024-02-28T02:11:19;21.73;;;13.15;;
24557;SDS011;12726;49.148;8.582;2024-02-28T02:14:06;25.45;;;14.00;;
24557;SDS011;12726;49.148;8.582;2024-02-28T02:16:51;28.13;;;15.68;;
24557;SDS011;12726;49.148;8.582;2024-02-28T02:19:36;29.90;;;14.80;;
24557;SDS011;12726;49.148;8.582;2024-02-28T02:22:22;27.63;;;15.40;;
24557;SDS011;12726;49.148;8.582;2024-02-28T02:25:12;28.05;;;16.65;;
24557;SDS011;12726;49.148;8.582;2024-02-28T02:27:57;25.85;;;15.25;;
24557;SDS011;12726;49.148;8.582;2024-02-28T02:30:42;26.80;;;14.88;;
24557;SDS011;12726;49.148;8.582;2024-02-28T02:33:29;26.40;;;15.82;;
24557;SDS011;12726;49.148;8.582;2024-02-28T02:36:14;25.88;;;15.05;;
24557;SDS011;12726;49.148;8.582;2024-02-28T02:38:59;23.90;;;13.90;;
24557;SDS011;12726;49.148;8.582;2024-02-28T02:41:46;21.90;;;12.20;;
24557;SDS011;12726;49.148;8.582;2024-02-28T02:44:31;27.65;;;14.93;;
24557;SDS011;12726;49.148;8.582;2024-02-28T02:47:16;27.27;;;15.18;;
24557;SDS011;12726;49.148;8.582;2024-02-28T02:50:02;26.15;;;14.40;;
24557;SDS011;12726;49.148;8.582;2024-02-28T02:52:50;23.00;;;13.88;;
24557;SDS011;12726;49.148;8.582;2024-02-28T02:55:36;27.88;;;13.73;;
24557;SDS011;12726;49.148;8.582;2024-02-28T02:58:22;23.00;;;13.55;;
24557;SDS011;12726;49.148;8.582;2024-02-28T03:01:08;29.15;;;16.27;;
24557;SDS011;12726;49.148;8.582;2024-02-28T03:03:53;27.85;;;15.27;;
24557;SDS011;12726;49.148;8.582;2024-02-28T03:06:38;25.77;;;14.63;;
24557;SDS011;12726;49.148;8.582;2024-02-28T03:09:23;32.72;;;16.52;;
24557;SDS011;12726;49.148;8.582;2024-02-28T03:12:11;29.80;;;16.23;;
24557;SDS011;12726;49.148;8.582;2024-02-28T03:14:58;28.50;;;16.25;;
24557;SDS011;12726;49.148;8.582;2024-02-28T03:17:44;36.15;;;17.60;;
24557;SDS011;12726;49.148;8.582;2024-02-28T03:20:29;27.80;;;16.48;;
24557;SDS011;12726;49.148;8.582;2024-02-28T03:23:14;30.90;;;16.17;;
24557;SDS011;12726;49.148;8.582;2024-02-28T03:26:00;29.70;;;16.40;;
24557;SDS011;12726;49.148;8.582;2024-02-28T03:28:45;30.52;;;17.40;;
24557;SDS011;12726;49.148;8.582;2024-02-28T03:31:32;29.60;;;16.45;;
24557;SDS011;12726;49.148;8.582;2024-02-28T03:34:17;25.80;;;14.77;;
24557;SDS011;12726;49.148;8.582;2024-02-28T03:37:02;24.85;;;14.63;;
24557;SDS011;12726;49.148;8.582;2024-02-28T03:39:48;28.48;;;15.43;;
24557;SDS011;12726;49.148;8.582;2024-02-28T03:42:33;20.00;;;11.90;;
24557;SDS011;12726;49.148;8.582;2024-02-28T03:45:19;21.50;;;12.00;;
24557;SDS011;12726;49.148;8.582;2024-02-28T03:48:06;30.60;;;16.48;;
24557;SDS011;12726;49.148;8.582;2024-02-28T03:50:52;27.58;;;14.75;;
24557;SDS011;12726;49.148;8.582;2024-02-28T03:53:37;21.58;;;12.63;;
24557;SDS011;12726;49.148;8.582;2024-02-28T03:56:25;24.88;;;13.25;;
24557;SDS011;12726;49.148;8.582;2024-02-28T03:59:11;23.10;;;14.05;;
24557;SDS011;12726;49.148;8.582;2024-02-28T04:01:56;27.63;;;15.63;;
24557;SDS011;12726;49.148;8.582;2024-02-28T04:04:43;27.73;;;14.88;;
24557;SDS011;12726;49.148;8.582;2024-02-28T04:07:28;29.23;;;16.20;;
24557;SDS011;12726;49.148;8.582;2024-02-28T04:10:13;28.35;;;14.63;;
24557;SDS011;12726;49.148;8.582;2024-02-28T04:12:59;28.88;;;15.30;;
24557;SDS011;12726;49.148;8.582;2024-02-28T04:15:44;31.35;;;16.80;;
24557;SDS011;12726;49.148;8.582;2024-02-28T04:18:30;23.58;;;13.65;;
24557;SDS011;12726;49.148;8.582;2024-02-28T04:21:17;27.08;;;14.95;;
24557;SDS011;12726;49.148;8.582;2024-02-28T04:24:02;26.98;;;14.82;;
24557;SDS011;12726;49.148;8.582;2024-02-28T04:26:47;28.45;;;14.68;;
24557;SDS011;12726;49.148;8.582;2024-02-28T04:29:33;24.60;;;14.27;;
24557;SDS011;12726;49.148;8.582;2024-02-28T04:32:18;31.70;;;16.63;;
24557;SDS011;12726;49.148;8.582;2024-02-28T04:35:04;23.70;;;13.43;;
24557;SDS011;12726;49.148;8.582;2024-02-28T04:37:51;30.60;;;16.05;;
24557;SDS011;12726;49.148;8.582;2024-02-28T04:40:37;32.95;;;17.42;;
24557;SDS011;12726;49.148;8.582;2024-02-28T04:43:22;33.75;;;17.83;;
24557;SDS011;12726;49.148;8.582;2024-02-28T04:46:07;31.60;;;16.95;;
24557;SDS011;12726;49.148;8.582;2024-02-28T04:48:53;34.08;;;17.48;;
24557;SDS011;12726;49.148;8.582;2024-02-28T04:51:40;32.25;;;16.48;;
24557;SDS011;12726;49.148;8.582;2024-02-28T04:54:27;31.42;;;15.90;;
24557;SDS011;12726;49.148;8.582;2024-02-28T04:57:12;28.05;;;14.93;;
24557;SDS011;12726;49.148;8.582;2024-02-28T04:59:57;27.25;;;15.50;;
24557;SDS011;12726;49.148;8.582;2024-02-28T05:02:43;30.77;;;16.33;;
24557;SDS011;12726;49.148;8.582;2024-02-28T05:05:28;32.03;;;17.10;;
24557;SDS011;12726;49.148;8.582;2024-02-28T05:08:13;29.52;;;15.75;;
24557;SDS011;12726;49.148;8.582;2024-02-28T05:11:00;27.30;;;15.63;;
24557;SDS011;12726;49.148;8.582;2024-02-28T05:13:46;31.20;;;15.35;;
24557;SDS011;12726;49.148;8.582;2024-02-28T05:16:31;27.48;;;15.85;;
24557;SDS011;12726;49.148;8.582;2024-02-28T05:19:16;31.45;;;16.73;;
24557;SDS011;12726;49.148;8.582;2024-02-28T05:22:02;33.20;;;17.27;;
24557;SDS011;12726;49.148;8.582;2024-02-28T05:24:48;31.08;;;14.88;;
24557;SDS011;12726;49.148;8.582;2024-02-28T05:27:35;23.80;;;13.73;;
24557;SDS011;12726;49.148;8.582;2024-02-28T05:30:20;29.77;;;15.98;;
24557;SDS011;12726;49.148;8.582;2024-02-28T05:33:05;30.70;;;15.40;;
24557;SDS011;12726;49.148;8.582;2024-02-28T05:35:50;26.88;;;15.48;;
24557;SDS011;12726;49.148;8.582;2024-02-28T05:38:36;27.42;;;14.90;;
24557;SDS011;12726;49.148;8.582;2024-02-28T05:41:21;32.05;;;17.42;;
24557;SDS011;12726;49.148;8.582;2024-02-28T05:44:08;35.92;;;18.58;;
24557;SDS011;12726;49.148;8.582;2024-02-28T05:46:53;33.00;;;17.15;;
24557;SDS011;12726;49.148;8.582;2024-02-28T05:49:38;36.78;;;18.10;;
24557;SDS011;12726;49.148;8.582;2024-02-28T05:52:24;36.65;;;18.08;;
24557;SDS011;12726;49.148;8.582;2024-02-28T05:55:10;38.63;;;18.98;;
24557;SDS011;12726;49.148;8.582;2024-02-28T05:57:55;35.97;;;17.48;;
24557;SDS011;12726;49.148;8.582;2024-02-28T06:00:42;36.22;;;18.77;;
24557;SDS011;12726;49.148;8.582;2024-02-28T06:03:27;36.03;;;18.15;;
24557;SDS011;12726;49.148;8.582;2024-02-28T06:06:13;32.60;;;17.95;;
24557;SDS011;12726;49.148;8.582;2024-02-28T06:08:58;37.72;;;18.50;;
24557;SDS011;12726;49.148;8.582;2024-02-28T06:11:43;40.50;;;20.40;;
24557;SDS011;12726;49.148;8.582;2024-02-28T06:14:29;36.05;;;18.60;;
24557;SDS011;12726;49.148;8.582;2024-02-28T06:17:15;32.70;;;17.15;;
24557;SDS011;12726;49.148;8.582;2024-02-28T06:20:01;37.25;;;18.45;;
24557;SDS011;12726;49.148;8.582;2024-02-28T06:22:46;35.47;;;17.40;;
24557;SDS011;12726;49.148;8.582;2024-02-28T06:25:32;35.30;;;17.95;;
24557;SDS011;12726;49.148;8.582;2024-02-28T06:28:17;40.05;;;17.88;;
24557;SDS011;12726;49.148;8.582;2024-02-28T06:31:03;39.75;;;19.70;;
24557;SDS011;12726;49.148;8.582;2024-02-28T06:33:50;37.28;;;19.58;;
24557;SDS011;12726;49.148;8.582;2024-02-28T06:36:35;36.53;;;18.40;;
24557;SDS011;12726;49.148;8.582;2024-02-28T06:39:21;40.67;;;21.98;;
24557;SDS011;12726;49.148;8.582;2024-02-28T06:42:06;42.40;;;20.70;;
24557;SDS011;12726;49.148;8.582;2024-02-28T06:44:52;40.90;;;22.15;;
24557;SDS011;12726;49.148;8.582;2024-02-28T06:47:37;35.33;;;19.38;;
24557;SDS011;12726;49.148;8.582;2024-02-28T06:50:25;45.72;;;22.40;;
24557;SDS011;12726;49.148;8.582;2024-02-28T06:53:10;43.15;;;21.40;;
24557;SDS011;12726;49.148;8.582;2024-02-28T06:55:55;47.42;;;22.52;;
24557;SDS011;12726;49.148;8.582;2024-02-28T06:58:41;49.20;;;23.63;;
24557;SDS011;12726;49.148;8.582;2024-02-28T07:01:26;45.58;;;21.35;;
24557;SDS011;12726;49.148;8.582;2024-02-28T07:04:12;38.90;;;20.60;;
24557;SDS011;12726;49.148;8.582;2024-02-28T07:06:58;36.45;;;18.73;;
24557;SDS011;12726;49.148;8.582;2024-02-28T07:09:44;36.90;;;18.38;;
24557;SDS011;12726;49.148;8.582;2024-02-28T07:12:29;36.20;;;18.50;;
24557;SDS011;12726;49.148;8.582;2024-02-28T07:15:14;38.75;;;20.08;;
24557;SDS011;12726;49.148;8.582;2024-02-28T07:18:02;32.92;;;17.48;;
24557;SDS011;12726;49.148;8.582;2024-02-28T07:20:48;39.03;;;20.13;;
24557;SDS011;12726;49.148;8.582;2024-02-28T07:23:35;35.80;;;19.65;;
24557;SDS011;12726;49.148;8.582;2024-02-28T07:26:23;35.25;;;19.50;;
24557;SDS011;12726;49.148;8.582;2024-02-28T07:29:09;34.70;;;17.70;;
24557;SDS011;12726;49.148;8.582;2024-02-28T07:31:54;37.88;;;19.52;;
24557;SDS011;12726;49.148;8.582;2024-02-28T07:34:39;40.25;;;20.40;;
24557;SDS011;12726;49.148;8.582;2024-02-28T07:37:26;35.78;;;19.13;;
24557;SDS011;12726;49.148;8.582;2024-02-28T07:40:15;42.72;;;21.02;;
24557;SDS011;12726;49.148;8.582;2024-02-28T07:43:00;31.55;;;17.60;;
24557;SDS011;12726;49.148;8.582;2024-02-28T07:45:45;34.22;;;19.50;;
24557;SDS011;12726;49.148;8.582;2024-02-28T07:48:31;32.22;;;17.70;;
24557;SDS011;12726;49.148;8.582;2024-02-28T07:51:16;31.35;;;17.67;;
24557;SDS011;12726;49.148;8.582;2024-02-28T07:54:02;32.00;;;19.10;;
24557;SDS011;12726;49.148;8.582;2024-02-28T07:56:49;31.58;;;18.45;;
24557;SDS011;12726;49.148;8.582;2024-02-28T07:59:38;33.83;;;19.33;;
24557;SDS011;12726;49.148;8.582;2024-02-28T08:02:24;31.85;;;19.00;;
24557;SDS011;12726;49.148;8.582;2024-02-28T08:05:09;28.42;;;17.20;;
24557;SDS011;12726;49.148;8.582;2024-02-28T08:07:54;33.30;;;18.95;;
24557;SDS011;12726;49.148;8.582;2024-02-28T08:10:39;31.73;;;17.80;;
24557;SDS011;12726;49.148;8.582;2024-02-28T08:13:26;28.58;;;17.15;;
24557;SDS011;12726;49.148;8.582;2024-02-28T08:16:12;31.45;;;18.02;;
24557;SDS011;12726;49.148;8.582;2024-02-28T08:18:57;30.23;;;17.42;;
24557;SDS011;12726;49.148;8.582;2024-02-28T08:21:42;27.48;;;17.55;;
24557;SDS011;12726;49.148;8.582;2024-02-28T08:24:28;28.95;;;17.30;;
24557;SDS011;12726;49.148;8.582;2024-02-28T08:27:13;30.77;;;17.25;;
24557;SDS011;12726;49.148;8.582;2024-02-28T08:30:00;29.00;;;17.65;;
24557;SDS011;12726;49.148;8.582;2024-02-28T08:32:46;29.45;;;17.67;;
24557;SDS011;12726;49.148;8.582;2024-02-28T08:35:31;27.23;;;16.67;;
24557;SDS011;12726;49.148;8.582;2024-02-28T08:38:16;27.80;;;16.70;;
24557;SDS011;12726;49.148;8.582;2024-02-28T08:41:02;26.20;;;16.77;;
24557;SDS011;12726;49.148;8.582;2024-02-28T08:43:47;26.15;;;17.02;;
24557;SDS011;12726;49.148;8.582;2024-02-28T08:46:34;28.20;;;16.45;;
24557;SDS011;12726;49.148;8.582;2024-02-28T08:49:19;28.58;;;17.98;;
24557;SDS011;12726;49.148;8.582;2024-02-28T08:52:04;27.00;;;16.48;;
24557;SDS011;12726;49.148;8.582;2024-02-28T08:54:50;25.42;;;16.52;;
24557;SDS011;12726;49.148;8.582;2024-02-28T08:57:35;25.25;;;16.70;;
24557;SDS011;12726;49.148;8.582;2024-02-28T09:00:20;26.70;;;18.05;;
24557;SDS011;12726;49.148;8.582;2024-02-28T09:03:07;24.17;;;16.23;;
24557;SDS011;12726;49.148;8.582;2024-02-28T09:05:52;25.95;;;15.85;;
24557;SDS011;12726;49.148;8.582;2024-02-28T09:08:40;26.50;;;17.10;;
24557;SDS011;12726;49.148;8.582;2024-02-28T09:11:25;24.65;;;16.45;;
24557;SDS011;12726;49.148;8.582;2024-02-28T09:14:11;22.98;;;15.38;;
24557;SDS011;12726;49.148;8.582;2024-02-28T09:16:56;27.55;;;17.13;;
24557;SDS011;12726;49.148;8.582;2024-02-28T09:19:48;23.73;;;15.38;;
24557;SDS011;12726;49.148;8.582;2024-02-28T09:22:33;25.38;;;16.50;;
24557;SDS011;12726;49.148;8.582;2024-02-28T09:25:18;24.10;;;16.15;;
24557;SDS011;12726;49.148;8.582;2024-02-28T09:28:05;24.40;;;15.73;;
24557;SDS011;12726;49.148;8.582;2024-02-28T09:30:50;23.33;;;14.52;;
24557;SDS011;12726;49.148;8.582;2024-02-28T09:33:36;20.70;;;14.45;;
24557;SDS011;12726;49.148;8.582;2024-02-28T09:36:23;19.00;;;13.32;;
24557;SDS011;12726;49.148;8.582;2024-02-28T09:39:08;20.63;;;14.02;;
24557;SDS011;12726;49.148;8.582;2024-02-28T09:41:54;19.45;;;13.25;;
24557;SDS011;12726;49.148;8.582;2024-02-28T09:44:39;22.40;;;14.85;;
24557;SDS011;12726;49.148;8.582;2024-02-28T09:47:25;21.98;;;13.73;;
24557;SDS011;12726;49.148;8.582;2024-02-28T09:50:10;19.38;;;13.25;;
24557;SDS011;12726;49.148;8.582;2024-02-28T09:52:58;17.23;;;12.77;;
24557;SDS011;12726;49.148;8.582;2024-02-28T09:55:44;19.63;;;12.70;;
24557;SDS011;12726;49.148;8.582;2024-02-28T09:58:29;19.83;;;13.77;;
24557;SDS011;12726;49.148;8.582;2024-02-28T10:01:15;17.23;;;12.77;;
24557;SDS011;12726;49.148;8.582;2024-02-28T10:04:04;19.27;;;12.27;;
24557;SDS011;12726;49.148;8.582;2024-02-28T10:06:50;18.88;;;12.82;;
24557;SDS011;12726;49.148;8.582;2024-02-28T10:09:39;18.02;;;11.80;;
24557;SDS011;12726;49.148;8.582;2024-02-28T10:12:25;14.57;;;10.95;;
24557;SDS011;12726;49.148;8.582;2024-02-28T10:15:10;16.48;;;11.65;;
24557;SDS011;12726;49.148;8.582;2024-02-28T10:17:55;17.80;;;11.55;;
24557;SDS011;12726;49.148;8.582;2024-02-28T10:20:41;16.38;;;11.48;;
24557;SDS011;12726;49.148;8.582;2024-02-28T10:23:26;16.55;;;11.52;;
24557;SDS011;12726;49.148;8.582;2024-02-28T10:26:13;20.05;;;13.25;;
24557;SDS011;12726;49.148;8.582;2024-02-28T10:28:58;20.00;;;13.82;;
24557;SDS011;12726;49.148;8.582;2024-02-28T10:31:43;18.58;;;13.05;;
24557;SDS011;12726;49.148;8.582;2024-02-28T10:34:29;19.27;;;13.32;;
24557;SDS011;12726;49.148;8.582;2024-02-28T10:37:14;20.77;;;12.50;;
24557;SDS011;12726;49.148;8.582;2024-02-28T10:40:00;18.63;;;12.43;;
24557;SDS011;12726;49.148;8.582;2024-02-28T10:42:48;19.83;;;11.85;;
24557;SDS011;12726;49.148;8.582;2024-02-28T10:45:33;14.20;;;10.05;;
24557;SDS011;12726;49.148;8.582;2024-02-28T10:48:21;14.45;;;9.70;;
24557;SDS011;12726;49.148;8.582;2024-02-28T10:51:07;16.42;;;10.20;;
24557;SDS011;12726;49.148;8.582;2024-02-28T10:54:01;13.38;;;8.10;;
24557;SDS011;12726;49.148;8.582;2024-02-28T10:56:54;12.25;;;8.27;;
24557;SDS011;12726;49.148;8.582;2024-02-28T10:59:41;13.75;;;9.55;;
24557;SDS011;12726;49.148;8.582;2024-02-28T11:02:29;14.23;;;9.15;;
24557;SDS011;12726;49.148;8.582;2024-02-28T11:05:15;13.02;;;8.68;;
24557;SDS011;12726;49.148;8.582;2024-02-28T11:08:00;12.70;;;8.57;;
24557;SDS011;12726;49.148;8.582;2024-02-28T11:10:46;14.57;;;9.00;;
24557;SDS011;12726;49.148;8.582;2024-02-28T11:13:31;12.45;;;8.68;;
24557;SDS011;12726;49.148;8.582;2024-02-28T11:16:25;12.45;;;9.25;;
24557;SDS011;12726;49.148;8.582;2024-02-28T11:19:18;15.27;;;9.88;;
24557;SDS011;12726;49.148;8.582;2024-02-28T11:22:05;12.18;;;9.93;;
24557;SDS011;12726;49.148;8.582;2024-02-28T11:24:53;12.30;;;9.13;;
24557;SDS011;12726;49.148;8.582;2024-02-28T11:27:45;12.65;;;8.93;;
24557;SDS011;12726;49.148;8.582;2024-02-28T11:30:31;13.88;;;9.00;;
24557;SDS011;12726;49.148;8.582;2024-02-28T11:33:18;12.80;;;8.75;;
24557;SDS011;12726;49.148;8.582;2024-02-28T11:36:03;12.70;;;8.77;;
24557;SDS011;12726;49.148;8.582;2024-02-28T11:38:49;11.38;;;8.50;;
24557;SDS011;12726;49.148;8.582;2024-02-28T11:41:35;11.80;;;8.75;;
24557;SDS011;12726;49.148;8.582;2024-02-28T11:44:20;13.98;;;9.82;;
24557;SDS011;12726;49.148;8.582;2024-02-28T11:47:08;12.82;;;8.80;;
24557;SDS011;12726;49.148;8.582;2024-02-28T11:49:57;12.73;;;9.25;;
24557;SDS011;12726;49.148;8.582;2024-02-28T11:52:43;12.82;;;8.98;;
24557;SDS011;12726;49.148;8.582;2024-02-28T11:55:28;14.13;;;8.45;;
24557;SDS011;12726;49.148;8.582;2024-02-28T11:58:13;11.57;;;8.93;;
24557;SDS011;12726;49.148;8.582;2024-02-28T12:01:00;9.93;;;7.85;;
24557;SDS011;12726;49.148;8.582;2024-02-28T12:03:45;11.15;;;8.30;;
24557;SDS011;12726;49.148;8.582;2024-02-28T12:06:32;12.68;;;8.30;;
24557;SDS011;12726;49.148;8.582;2024-02-28T12:09:17;13.73;;;9.52;;
24557;SDS011;12726;49.148;8.582;2024-02-28T12:12:03;11.05;;;8.98;;
24557;SDS011;12726;49.148;8.582;2024-02-28T12:14:49;11.80;;;9.27;;
24557;SDS011;12726;49.148;8.582;2024-02-28T12:17:35;12.30;;;9.75;;
24557;SDS011;12726;49.148;8.582;2024-02-28T12:20:21;11.10;;;8.70;;
24557;SDS011;12726;49.148;8.582;2024-02-28T12:23:07;13.02;;;9.02;;
24557;SDS011;12726;49.148;8.582;2024-02-28T12:25:53;10.65;;;8.90;;
24557;SDS011;12726;49.148;8.582;2024-02-28T12:28:38;10.43;;;8.63;;
24557;SDS011;12726;49.148;8.582;2024-02-28T12:31:23;12.75;;;9.55;;
24557;SDS011;12726;49.148;8.582;2024-02-28T12:34:09;12.50;;;9.68;;
24557;SDS011;12726;49.148;8.582;2024-02-28T12:36:54;13.65;;;9.35;;
24557;SDS011;12726;49.148;8.582;2024-02-28T12:39:41;12.30;;;9.40;;
24557;SDS011;12726;49.148;8.582;2024-02-28T12:42:26;12.35;;;9.02;;
24557;SDS011;12726;49.148;8.582;2024-02-28T12:45:12;13.35;;;10.05;;
24557;SDS011;12726;49.148;8.582;2024-02-28T12:47:57;13.57;;;9.93;;
24557;SDS011;12726;49.148;8.582;2024-02-28T12:50:44;12.32;;;9.25;;
24557;SDS011;12726;49.148;8.582;2024-02-28T12:53:30;14.90;;;9.73;;
24557;SDS011;12726;49.148;8.582;2024-02-28T12:56:17;12.57;;;9.75;;
24557;SDS011;12726;49.148;8.582;2024-02-28T12:59:02;17.08;;;9.98;;
24557;SDS011;12726;49.148;8.582;2024-02-28T13:01:47;13.00;;;9.13;;
24557;SDS011;12726;49.148;8.582;2024-02-28T13:04:33;15.18;;;8.98;;
24557;SDS011;12726;49.148;8.582;2024-02-28T13:07:18;14.23;;;9.27;;
24557;SDS011;12726;49.148;8.582;2024-02-28T13:10:07;14.73;;;9.27;;
24557;SDS011;12726;49.148;8.582;2024-02-28T13:12:53;12.18;;;8.55;;
24557;SDS011;12726;49.148;8.582;2024-02-28T13:15:39;15.75;;;9.82;;
24557;SDS011;12726;49.148;8.582;2024-02-28T13:18:25;16.10;;;9.68;;
24557;SDS011;12726;49.148;8.582;2024-02-28T13:21:10;14.05;;;9.50;;
24557;SDS011;12726;49.148;8.582;2024-02-28T13:23:56;16.52;;;9.20;;
24557;SDS011;12726;49.148;8.582;2024-02-28T13:26:41;14.70;;;9.60;;
24557;SDS011;12726;49.148;8.582;2024-02-28T13:29:29;13.75;;;9.15;;
24557;SDS011;12726;49.148;8.582;2024-02-28T13:32:18;16.02;;;10.35;;
24557;SDS011;12726;49.148;8.582;2024-02-28T13:35:03;13.57;;;8.85;;
24557;SDS011;12726;49.148;8.582;2024-02-28T13:37:48;15.63;;;9.82;;
24557;SDS011;12726;49.148;8.582;2024-02-28T13:40:34;14.70;;;9.38;;
24557;SDS011;12726;49.148;8.582;2024-02-28T13:43:20;13.68;;;9.23;;
24557;SDS011;12726;49.148;8.582;2024-02-28T13:46:07;13.63;;;9.63;;
24557;SDS011;12726;49.148;8.582;2024-02-28T13:48:53;14.75;;;9.32;;
24557;SDS011;12726;49.148;8.582;2024-02-28T13:51:38;14.57;;;9.68;;
24557;SDS011;12726;49.148;8.582;2024-02-28T13:54:24;13.65;;;9.50;;
24557;SDS011;12726;49.148;8.582;2024-02-28T13:57:09;13.63;;;8.25;;
24557;SDS011;12726;49.148;8.582;2024-02-28T13:59:55;14.18;;;9.45;;
24557;SDS011;12726;49.148;8.582;2024-02-28T14:02:42;13.98;;;9.52;;
24557;SDS011;12726;49.148;8.582;2024-02-28T14:05:27;12.85;;;8.73;;
24557;SDS011;12726;49.148;8.582;2024-02-28T14:08:12;13.95;;;8.85;;
24557;SDS011;12726;49.148;8.582;2024-02-28T14:10:58;13.73;;;8.93;;
24557;SDS011;12726;49.148;8.582;2024-02-28T14:13:43;13.60;;;8.60;;
24557;SDS011;12726;49.148;8.582;2024-02-28T14:16:29;14.27;;;8.75;;
24557;SDS011;12726;49.148;8.582;2024-02-28T14:19:17;13.43;;;8.43;;
24557;SDS011;12726;49.148;8.582;2024-02-28T14:22:03;14.98;;;9.43;;
24557;SDS011;12726;49.148;8.582;2024-02-28T14:24:48;12.20;;;8.35;;
24557;SDS011;12726;49.148;8.582;2024-02-28T14:27:33;12.90;;;7.95;;
24557;SDS011;12726;49.148;8.582;2024-02-28T14:30:19;12.32;;;7.80;;
24557;SDS011;12726;49.148;8.582;2024-02-28T14:33:05;17.17;;;9.05;;
24557;SDS011;12726;49.148;8.582;2024-02-28T14:35:53;13.25;;;8.68;;
24557;SDS011;12726;49.148;8.582;2024-02-28T14:38:38;12.27;;;7.63;;
24557;SDS011;12726;49.148;8.582;2024-02-28T14:41:23;13.27;;;8.65;;
24557;SDS011;12726;49.148;8.582;2024-02-28T14:44:09;12.50;;;8.32;;
24557;SDS011;12726;49.148;8.582;2024-02-28T14:46:54;12.25;;;8.38;;
24557;SDS011;12726;49.148;8.582;2024-02-28T14:49:40;11.43;;;8.27;;
24557;SDS011;12726;49.148;8.582;2024-02-28T14:52:27;13.20;;;7.35;;
24557;SDS011;12726;49.148;8.582;2024-02-28T14:55:12;9.90;;;7.35;;
24557;SDS011;12726;49.148;8.582;2024-02-28T14:57:58;12.35;;;7.60;;
24557;SDS011;12726;49.148;8.582;2024-02-28T15:00:43;12.25;;;7.60;;
24557;SDS011;12726;49.148;8.582;2024-02-28T15:03:30;12.68;;;7.82;;
24557;SDS011;12726;49.148;8.582;2024-02-28T15:06:16;11.38;;;7.55;;
24557;SDS011;12726;49.148;8.582;2024-02-28T15:09:03;14.00;;;7.38;;
24557;SDS011;12726;49.148;8.582;2024-02-28T15:11:49;11.32;;;7.15;;
24557;SDS011;12726;49.148;8.582;2024-02-28T15:14:35;11.38;;;6.97;;
24557;SDS011;12726;49.148;8.582;2024-02-28T15:17:20;10.70;;;7.57;;
24557;SDS011;12726;49.148;8.582;2024-02-28T15:20:06;11.18;;;7.40;;
24557;SDS011;12726;49.148;8.582;2024-02-28T15:22:52;10.88;;;7.70;;
24557;SDS011;12726;49.148;8.582;2024-02-28T15:25:40;13.30;;;7.88;;
24557;SDS011;12726;49.148;8.582;2024-02-28T15:28:25;11.57;;;7.55;;
24557;SDS011;12726;49.148;8.582;2024-02-28T15:31:10;11.88;;;7.20;;
24557;SDS011;12726;49.148;8.582;2024-02-28T15:33:56;13.90;;;7.80;;
24557;SDS011;12726;49.148;8.582;2024-02-28T15:36:41;13.98;;;7.65;;
24557;SDS011;12726;49.148;8.582;2024-02-28T15:39:27;11.20;;;7.10;;
24557;SDS011;12726;49.148;8.582;2024-02-28T15:42:14;14.90;;;7.35;;
24557;SDS011;12726;49.148;8.582;2024-02-28T15:44:59;15.93;;;8.25;;
24557;SDS011;12726;49.148;8.582;2024-02-28T15:47:44;11.18;;;7.20;;
24557;SDS011;12726;49.148;8.582;2024-02-28T15:50:30;13.65;;;7.40;;
24557;SDS011;12726;49.148;8.582;2024-02-28T15:53:16;10.45;;;6.97;;
24557;SDS011;12726;49.148;8.582;2024-02-28T15:56:02;10.65;;;6.10;;
24557;SDS011;12726;49.148;8.582;2024-02-28T15:58:50;10.18;;;6.55;;
24557;SDS011;12726;49.148;8.582;2024-02-28T16:01:35;10.77;;;5.90;;
24557;SDS011;12726;49.148;8.582;2024-02-28T16:04:20;10.27;;;6.00;;
24557;SDS011;12726;49.148;8.582;2024-02-28T16:07:08;9.93;;;6.47;;
24557;SDS011;12726;49.148;8.582;2024-02-28T16:09:54;12.02;;;6.95;;
24557;SDS011;12726;49.148;8.582;2024-02-28T16:12:39;10.52;;;6.68;;
24557;SDS011;12726;49.148;8.582;2024-02-28T16:15:27;12.15;;;6.85;;